sensor_id;sensor_type;location;lat;lon;timestamp;pressure;altitude;pressure_sealevel;temperature;humidity
52855;BME280;38719;51.418;7.286;2022-08-04T00:01:07;99619.25;;;25.54;51.68
52855;BME280;38719;51.418;7.286;2022-08-04T00:03:42;99615.84;;;25.60;50.53
52855;BME280;38719;51.418;7.286;2022-08-04T00:06:15;99612.97;;;25.53;51.18
52855;BME280;38719;51.418;7.286;2022-08-04T00:08:45;99620.78;;;25.56;50.55
52855;BME280;38719;51.418;7.286;2022-08-04T00:11:20;99610.91;;;25.55;50.67
52855;BME280;38719;51.418;7.286;2022-08-04T00:13:52;99618.28;;;25.38;52.09
52855;BME280;38719;51.418;7.286;2022-08-04T00:16:30;99617.28;;;25.39;52.25
52855;BME280;38719;51.418;7.286;2022-08-04T00:19:09;99619.09;;;25.31;52.72
52855;BME280;38719;51.418;7.286;2022-08-04T00:21:41;99611.84;;;25.15;53.01
52855;BME280;38719;51.418;7.286;2022-08-04T00:24:12;99605.00;;;25.10;53.38
52855;BME280;38719;51.418;7.286;2022-08-04T00:26:42;99610.44;;;25.02;53.58
52855;BME280;38719;51.418;7.286;2022-08-04T00:29:09;99606.91;;;25.02;53.19
52855;BME280;38719;51.418;7.286;2022-08-04T00:31:41;99607.41;;;24.97;54.00
52855;BME280;38719;51.418;7.286;2022-08-04T00:34:25;99602.31;;;24.94;53.72
52855;BME280;38719;51.418;7.286;2022-08-04T00:36:54;99603.84;;;24.80;53.18
52855;BME280;38719;51.418;7.286;2022-08-04T00:39:22;99598.03;;;24.75;53.36
52855;BME280;38719;51.418;7.286;2022-08-04T00:42:00;99596.19;;;24.67;54.31
52855;BME280;38719;51.418;7.286;2022-08-04T00:44:35;99598.34;;;24.63;54.60
52855;BME280;38719;51.418;7.286;2022-08-04T00:47:18;99592.75;;;24.65;54.44
52855;BME280;38719;51.418;7.286;2022-08-04T00:50:03;99591.72;;;24.58;54.49
52855;BME280;38719;51.418;7.286;2022-08-04T00:52:52;99591.72;;;24.58;54.93
52855;BME280;38719;51.418;7.286;2022-08-04T00:55:43;99585.75;;;24.62;54.72
52855;BME280;38719;51.418;7.286;2022-08-04T00:58:29;99583.38;;;24.59;55.52
52855;BME280;38719;51.418;7.286;2022-08-04T01:01:07;99586.81;;;24.61;54.33
52855;BME280;38719;51.418;7.286;2022-08-04T01:03:50;99576.44;;;24.65;54.51
52855;BME280;38719;51.418;7.286;2022-08-04T01:06:34;99568.97;;;24.67;54.23
52855;BME280;38719;51.418;7.286;2022-08-04T01:09:13;99567.06;;;24.76;54.38
52855;BME280;38719;51.418;7.286;2022-08-04T01:11:59;99571.34;;;24.78;53.16
52855;BME280;38719;51.418;7.286;2022-08-04T01:14:43;99577.09;;;24.84;53.23
52855;BME280;38719;51.418;7.286;2022-08-04T01:17:19;99573.22;;;24.86;53.22
52855;BME280;38719;51.418;7.286;2022-08-04T01:19:53;99572.00;;;24.97;53.06
52855;BME280;38719;51.418;7.286;2022-08-04T01:22:49;99571.16;;;24.97;53.76
52855;BME280;38719;51.418;7.286;2022-08-04T01:29:06;99569.44;;;25.04;53.35
52855;BME280;38719;51.418;7.286;2022-08-04T01:31:52;99564.50;;;24.99;52.96
52855;BME280;38719;51.418;7.286;2022-08-04T01:34:22;99564.69;;;24.89;53.39
52855;BME280;38719;51.418;7.286;2022-08-04T01:36:58;99563.00;;;24.80;53.93
52855;BME280;38719;51.418;7.286;2022-08-04T01:39:33;99558.03;;;24.84;53.96
52855;BME280;38719;51.418;7.286;2022-08-04T01:42:08;99557.56;;;24.80;53.42
52855;BME280;38719;51.418;7.286;2022-08-04T01:44:40;99557.56;;;24.72;54.47
52855;BME280;38719;51.418;7.286;2022-08-04T01:47:08;99559.59;;;24.70;54.42
52855;BME280;38719;51.418;7.286;2022-08-04T01:49:37;99552.06;;;24.63;55.03
52855;BME280;38719;51.418;7.286;2022-08-04T01:52:07;99549.91;;;24.67;54.02
52855;BME280;38719;51.418;7.286;2022-08-04T01:54:37;99549.84;;;24.59;54.48
52855;BME280;38719;51.418;7.286;2022-08-04T01:57:09;99539.66;;;24.53;55.62
52855;BME280;38719;51.418;7.286;2022-08-04T01:59:59;99541.22;;;24.55;54.51
52855;BME280;38719;51.418;7.286;2022-08-04T02:02:26;99540.69;;;24.60;54.61
52855;BME280;38719;51.418;7.286;2022-08-04T02:04:55;99535.78;;;24.55;54.91
52855;BME280;38719;51.418;7.286;2022-08-04T02:07:39;99532.03;;;24.48;54.88
52855;BME280;38719;51.418;7.286;2022-08-04T02:10:17;99523.53;;;24.43;55.30
52855;BME280;38719;51.418;7.286;2022-08-04T02:13:02;99527.91;;;24.44;55.40
52855;BME280;38719;51.418;7.286;2022-08-04T02:15:42;99527.09;;;24.43;54.86
52855;BME280;38719;51.418;7.286;2022-08-04T02:18:18;99512.28;;;24.54;54.45
52855;BME280;38719;51.418;7.286;2022-08-04T02:20:48;99515.84;;;24.46;55.07
52855;BME280;38719;51.418;7.286;2022-08-04T02:23:28;99511.06;;;24.40;55.54
52855;BME280;38719;51.418;7.286;2022-08-04T02:25:57;99508.34;;;24.40;55.47
52855;BME280;38719;51.418;7.286;2022-08-04T02:28:32;99502.59;;;24.43;55.35
52855;BME280;38719;51.418;7.286;2022-08-04T02:31:10;99505.31;;;24.43;55.33
52855;BME280;38719;51.418;7.286;2022-08-04T02:33:42;99504.28;;;24.36;55.49
52855;BME280;38719;51.418;7.286;2022-08-04T02:36:15;99506.00;;;24.37;55.61
52855;BME280;38719;51.418;7.286;2022-08-04T02:38:54;99508.34;;;24.40;55.37
52855;BME280;38719;51.418;7.286;2022-08-04T02:41:24;99502.25;;;24.30;56.14
52855;BME280;38719;51.418;7.286;2022-08-04T02:43:55;99499.88;;;24.27;55.95
52855;BME280;38719;51.418;7.286;2022-08-04T02:46:26;99492.34;;;24.04;57.16
52855;BME280;38719;51.418;7.286;2022-08-04T02:48:54;99499.31;;;23.98;56.99
52855;BME280;38719;51.418;7.286;2022-08-04T02:51:25;99492.97;;;23.81;57.26
52855;BME280;38719;51.418;7.286;2022-08-04T02:53:55;99495.00;;;23.71;57.72
52855;BME280;38719;51.418;7.286;2022-08-04T02:56:25;99490.69;;;23.69;57.81
52855;BME280;38719;51.418;7.286;2022-08-04T02:58:57;99481.66;;;23.52;58.39
52855;BME280;38719;51.418;7.286;2022-08-04T03:01:27;99481.81;;;23.42;58.64
52855;BME280;38719;51.418;7.286;2022-08-04T03:04:13;99476.56;;;23.48;58.26
52855;BME280;38719;51.418;7.286;2022-08-04T03:07:12;99480.88;;;23.67;57.49
52855;BME280;38719;51.418;7.286;2022-08-04T03:10:11;99474.59;;;23.75;57.25
52855;BME280;38719;51.418;7.286;2022-08-04T03:16:13;99474.09;;;23.88;57.41
52855;BME280;38719;51.418;7.286;2022-08-04T03:19:15;99472.97;;;23.99;56.80
52855;BME280;38719;51.418;7.286;2022-08-04T03:22:17;99467.22;;;24.02;56.61
52855;BME280;38719;51.418;7.286;2022-08-04T03:31:06;99460.13;;;23.58;58.18
52855;BME280;38719;51.418;7.286;2022-08-04T03:33:44;99464.19;;;23.54;57.99
52855;BME280;38719;51.418;7.286;2022-08-04T03:36:41;99462.13;;;23.48;58.35
52855;BME280;38719;51.418;7.286;2022-08-04T03:46:39;99464.75;;;23.23;59.24
52855;BME280;38719;51.418;7.286;2022-08-04T03:49:37;99459.88;;;23.09;60.10
52855;BME280;38719;51.418;7.286;2022-08-04T03:52:14;99463.09;;;23.04;60.63
52855;BME280;38719;51.418;7.286;2022-08-04T03:55:29;99465.53;;;23.15;59.26
52855;BME280;38719;51.418;7.286;2022-08-04T04:01:33;99463.69;;;23.16;58.98
52855;BME280;38719;51.418;7.286;2022-08-04T04:04:39;99461.50;;;23.20;60.02
52855;BME280;38719;51.418;7.286;2022-08-04T04:07:35;99461.13;;;23.14;59.79
52855;BME280;38719;51.418;7.286;2022-08-04T04:10:29;99457.78;;;23.21;59.64
52855;BME280;38719;51.418;7.286;2022-08-04T04:13:21;99459.38;;;23.05;59.13
52855;BME280;38719;51.418;7.286;2022-08-04T04:16:06;99463.91;;;22.96;60.11
52855;BME280;38719;51.418;7.286;2022-08-04T04:18:51;99467.31;;;22.98;60.16
52855;BME280;38719;51.418;7.286;2022-08-04T04:21:28;99466.78;;;22.95;61.27
52855;BME280;38719;51.418;7.286;2022-08-04T04:27:14;99458.84;;;23.01;60.59
52855;BME280;38719;51.418;7.286;2022-08-04T04:30:05;99470.03;;;22.98;61.04
52855;BME280;38719;51.418;7.286;2022-08-04T04:35:31;99461.72;;;23.00;60.99
52855;BME280;38719;51.418;7.286;2022-08-04T04:38:16;99463.84;;;23.14;60.36
52855;BME280;38719;51.418;7.286;2022-08-04T04:40:58;99458.41;;;23.14;59.85
52855;BME280;38719;51.418;7.286;2022-08-04T04:46:49;99468.50;;;23.04;60.33
52855;BME280;38719;51.418;7.286;2022-08-04T04:49:28;99466.13;;;23.01;61.30
52855;BME280;38719;51.418;7.286;2022-08-04T04:52:02;99463.09;;;23.04;60.99
52855;BME280;38719;51.418;7.286;2022-08-04T04:54:36;99462.25;;;23.03;61.53
52855;BME280;38719;51.418;7.286;2022-08-04T04:57:12;99461.78;;;23.08;60.79
52855;BME280;38719;51.418;7.286;2022-08-04T04:59:46;99460.75;;;23.09;61.17
52855;BME280;38719;51.418;7.286;2022-08-04T05:02:41;99463.34;;;23.19;61.00
52855;BME280;38719;51.418;7.286;2022-08-04T05:05:24;99461.34;;;23.21;61.00
52855;BME280;38719;51.418;7.286;2022-08-04T05:08:04;99466.13;;;23.27;60.89
52855;BME280;38719;51.418;7.286;2022-08-04T05:11:23;99461.41;;;23.38;60.51
52855;BME280;38719;51.418;7.286;2022-08-04T05:13:56;99462.09;;;23.40;60.28
52855;BME280;38719;51.418;7.286;2022-08-04T05:16:46;99460.72;;;23.36;60.87
52855;BME280;38719;51.418;7.286;2022-08-04T05:19:20;99466.00;;;23.37;60.99
52855;BME280;38719;51.418;7.286;2022-08-04T05:21:54;99463.78;;;23.41;60.89
52855;BME280;38719;51.418;7.286;2022-08-04T05:24:24;99454.81;;;23.48;61.13
52855;BME280;38719;51.418;7.286;2022-08-04T05:27:06;99464.72;;;23.58;60.84
52855;BME280;38719;51.418;7.286;2022-08-04T05:29:41;99462.84;;;23.58;61.34
52855;BME280;38719;51.418;7.286;2022-08-04T05:32:14;99470.97;;;23.58;61.49
52855;BME280;38719;51.418;7.286;2022-08-04T05:34:48;99467.94;;;23.61;61.61
52855;BME280;38719;51.418;7.286;2022-08-04T05:37:19;99466.06;;;23.62;61.71
52855;BME280;38719;51.418;7.286;2022-08-04T05:39:56;99467.81;;;23.71;61.51
52855;BME280;38719;51.418;7.286;2022-08-04T05:42:26;99461.34;;;23.80;60.71
52855;BME280;38719;51.418;7.286;2022-08-04T05:44:56;99465.94;;;23.88;61.32
52855;BME280;38719;51.418;7.286;2022-08-04T05:47:24;99463.81;;;24.00;61.09
52855;BME280;38719;51.418;7.286;2022-08-04T05:49:53;99464.84;;;24.07;61.26
52855;BME280;38719;51.418;7.286;2022-08-04T05:52:29;99459.75;;;24.21;58.23
52855;BME280;38719;51.418;7.286;2022-08-04T05:54:58;99468.75;;;24.29;58.45
52855;BME280;38719;51.418;7.286;2022-08-04T05:57:27;99470.94;;;24.34;59.19
52855;BME280;38719;51.418;7.286;2022-08-04T05:59:59;99469.94;;;24.35;59.86
52855;BME280;38719;51.418;7.286;2022-08-04T06:02:48;99466.72;;;24.48;58.80
52855;BME280;38719;51.418;7.286;2022-08-04T06:05:17;99460.72;;;24.53;59.72
52855;BME280;38719;51.418;7.286;2022-08-04T06:07:45;99469.44;;;24.73;58.14
52855;BME280;38719;51.418;7.286;2022-08-04T06:10:36;99468.88;;;24.86;56.52
52855;BME280;38719;51.418;7.286;2022-08-04T06:13:08;99468.19;;;24.92;55.92
52855;BME280;38719;51.418;7.286;2022-08-04T06:15:58;99467.47;;;25.06;54.10
52855;BME280;38719;51.418;7.286;2022-08-04T06:18:28;99470.84;;;25.17;54.31
52855;BME280;38719;51.418;7.286;2022-08-04T06:21:19;99465.34;;;25.33;54.26
52855;BME280;38719;51.418;7.286;2022-08-04T06:23:48;99467.69;;;25.45;53.45
52855;BME280;38719;51.418;7.286;2022-08-04T06:26:26;99471.56;;;25.50;53.78
52855;BME280;38719;51.418;7.286;2022-08-04T06:28:56;99467.63;;;25.61;53.87
52855;BME280;38719;51.418;7.286;2022-08-04T06:31:26;99469.44;;;25.69;53.66
52855;BME280;38719;51.418;7.286;2022-08-04T06:34:32;99468.50;;;25.85;53.10
52855;BME280;38719;51.418;7.286;2022-08-04T06:37:01;99474.19;;;25.98;52.22
52855;BME280;38719;51.418;7.286;2022-08-04T06:39:30;99480.03;;;25.95;50.99
52855;BME280;38719;51.418;7.286;2022-08-04T06:42:00;99471.28;;;26.00;51.33
52855;BME280;38719;51.418;7.286;2022-08-04T06:44:50;99470.25;;;26.09;50.86
52855;BME280;38719;51.418;7.286;2022-08-04T06:47:20;99475.06;;;26.22;49.30
52855;BME280;38719;51.418;7.286;2022-08-04T06:49:50;99469.19;;;26.33;49.48
52855;BME280;38719;51.418;7.286;2022-08-04T06:52:39;99469.50;;;26.38;47.86
52855;BME280;38719;51.418;7.286;2022-08-04T06:55:07;99468.78;;;26.45;47.61
52855;BME280;38719;51.418;7.286;2022-08-04T06:57:35;99470.75;;;26.51;46.99
52855;BME280;38719;51.418;7.286;2022-08-04T07:00:06;99469.16;;;26.57;47.16
52855;BME280;38719;51.418;7.286;2022-08-04T07:02:39;99469.09;;;26.65;46.70
52855;BME280;38719;51.418;7.286;2022-08-04T07:05:09;99462.38;;;26.76;46.28
52855;BME280;38719;51.418;7.286;2022-08-04T07:07:38;99464.16;;;26.83;45.96
52855;BME280;38719;51.418;7.286;2022-08-04T07:10:24;99459.38;;;26.85;45.85
52855;BME280;38719;51.418;7.286;2022-08-04T07:12:53;99457.19;;;26.96;45.76
52855;BME280;38719;51.418;7.286;2022-08-04T07:15:21;99461.63;;;26.97;45.50
52855;BME280;38719;51.418;7.286;2022-08-04T07:17:51;99451.44;;;27.06;45.22
52855;BME280;38719;51.418;7.286;2022-08-04T07:20:20;99455.69;;;27.08;44.35
52855;BME280;38719;51.418;7.286;2022-08-04T07:23:01;99454.19;;;27.06;44.47
52855;BME280;38719;51.418;7.286;2022-08-04T07:25:29;99459.63;;;27.21;44.43
52855;BME280;38719;51.418;7.286;2022-08-04T07:28:18;99462.28;;;27.29;44.53
52855;BME280;38719;51.418;7.286;2022-08-04T07:30:46;99457.84;;;27.28;44.58
52855;BME280;38719;51.418;7.286;2022-08-04T07:33:16;99459.91;;;27.26;44.21
52855;BME280;38719;51.418;7.286;2022-08-04T07:35:45;99451.16;;;27.30;43.74
52855;BME280;38719;51.418;7.286;2022-08-04T07:38:35;99459.91;;;27.41;44.54
52855;BME280;38719;51.418;7.286;2022-08-04T07:41:19;99462.56;;;27.49;43.43
52855;BME280;38719;51.418;7.286;2022-08-04T07:44:04;99456.13;;;27.57;43.49
52855;BME280;38719;51.418;7.286;2022-08-04T07:46:32;99456.84;;;27.65;44.08
52855;BME280;38719;51.418;7.286;2022-08-04T07:49:01;99462.59;;;27.71;43.61
52855;BME280;38719;51.418;7.286;2022-08-04T07:51:30;99461.75;;;27.70;43.26
52855;BME280;38719;51.418;7.286;2022-08-04T07:53:58;99465.47;;;27.84;43.28
52855;BME280;38719;51.418;7.286;2022-08-04T07:56:29;99464.59;;;27.98;42.95
52855;BME280;38719;51.418;7.286;2022-08-04T07:58:57;99458.25;;;28.13;43.72
52855;BME280;38719;51.418;7.286;2022-08-04T08:01:26;99464.59;;;28.20;42.97
52855;BME280;38719;51.418;7.286;2022-08-04T08:03:56;99465.91;;;28.24;43.21
52855;BME280;38719;51.418;7.286;2022-08-04T08:06:26;99467.22;;;28.28;43.09
52855;BME280;38719;51.418;7.286;2022-08-04T08:09:00;99463.69;;;28.35;42.28
52855;BME280;38719;51.418;7.286;2022-08-04T08:11:40;99463.31;;;28.38;43.09
52855;BME280;38719;51.418;7.286;2022-08-04T08:14:28;99467.13;;;28.43;42.43
52855;BME280;38719;51.418;7.286;2022-08-04T08:16:57;99457.22;;;28.42;42.38
52855;BME280;38719;51.418;7.286;2022-08-04T08:19:25;99466.34;;;28.50;42.21
52855;BME280;38719;51.418;7.286;2022-08-04T08:21:54;99460.06;;;28.56;42.42
52855;BME280;38719;51.418;7.286;2022-08-04T08:24:26;99459.88;;;28.57;42.80
52855;BME280;38719;51.418;7.286;2022-08-04T08:26:54;99455.50;;;28.63;41.81
52855;BME280;38719;51.418;7.286;2022-08-04T08:29:23;99453.59;;;28.63;40.93
52855;BME280;38719;51.418;7.286;2022-08-04T08:31:52;99460.22;;;28.69;41.52
52855;BME280;38719;51.418;7.286;2022-08-04T08:34:24;99461.94;;;28.77;40.57
52855;BME280;38719;51.418;7.286;2022-08-04T08:36:58;99464.13;;;28.88;40.41
52855;BME280;38719;51.418;7.286;2022-08-04T08:39:35;99462.28;;;28.95;39.88
52855;BME280;38719;51.418;7.286;2022-08-04T08:42:30;99462.56;;;29.07;40.08
52855;BME280;38719;51.418;7.286;2022-08-04T08:45:26;99462.19;;;29.17;40.34
52855;BME280;38719;51.418;7.286;2022-08-04T08:48:15;99462.66;;;29.27;40.43
52855;BME280;38719;51.418;7.286;2022-08-04T08:51:02;99470.75;;;29.36;39.40
52855;BME280;38719;51.418;7.286;2022-08-04T08:53:52;99469.53;;;29.45;39.53
52855;BME280;38719;51.418;7.286;2022-08-04T08:56:33;99460.28;;;29.53;39.02
52855;BME280;38719;51.418;7.286;2022-08-04T08:59:26;99467.94;;;29.71;38.86
52855;BME280;38719;51.418;7.286;2022-08-04T09:02:09;99470.72;;;29.84;38.81
52855;BME280;38719;51.418;7.286;2022-08-04T09:05:19;99465.09;;;30.06;38.59
52855;BME280;38719;51.418;7.286;2022-08-04T09:08:14;99457.09;;;30.18;39.23
52855;BME280;38719;51.418;7.286;2022-08-04T09:10:48;99459.81;;;30.24;38.33
52855;BME280;38719;51.418;7.286;2022-08-04T09:13:21;99463.41;;;30.18;37.83
52855;BME280;38719;51.418;7.286;2022-08-04T09:15:57;99460.69;;;30.38;37.31
52855;BME280;38719;51.418;7.286;2022-08-04T09:18:31;99459.84;;;30.45;37.20
52855;BME280;38719;51.418;7.286;2022-08-04T09:21:08;99457.34;;;30.57;37.51
52855;BME280;38719;51.418;7.286;2022-08-04T09:23:45;99452.47;;;30.72;36.99
52855;BME280;38719;51.418;7.286;2022-08-04T09:26:20;99451.19;;;30.81;37.93
52855;BME280;38719;51.418;7.286;2022-08-04T09:28:53;99450.09;;;30.96;37.42
52855;BME280;38719;51.418;7.286;2022-08-04T09:31:30;99443.53;;;31.03;35.30
52855;BME280;38719;51.418;7.286;2022-08-04T09:34:30;99443.97;;;31.14;35.96
52855;BME280;38719;51.418;7.286;2022-08-04T09:37:06;99446.06;;;31.12;34.51
52855;BME280;38719;51.418;7.286;2022-08-04T09:39:46;99439.09;;;31.09;34.48
52855;BME280;38719;51.418;7.286;2022-08-04T09:42:26;99437.78;;;31.25;34.89
52855;BME280;38719;51.418;7.286;2022-08-04T09:44:59;99443.44;;;31.37;35.13
52855;BME280;38719;51.418;7.286;2022-08-04T09:47:34;99445.53;;;31.48;34.06
52855;BME280;38719;51.418;7.286;2022-08-04T09:50:10;99451.34;;;31.72;33.69
52855;BME280;38719;51.418;7.286;2022-08-04T09:52:57;99456.75;;;31.92;34.29
52855;BME280;38719;51.418;7.286;2022-08-04T09:55:40;99457.94;;;32.03;33.34
52855;BME280;38719;51.418;7.286;2022-08-04T09:58:27;99455.69;;;32.19;33.03
52855;BME280;38719;51.418;7.286;2022-08-04T10:01:13;99454.69;;;32.20;32.60
52855;BME280;38719;51.418;7.286;2022-08-04T10:03:50;99452.06;;;32.31;33.45
52855;BME280;38719;51.418;7.286;2022-08-04T10:06:47;99452.94;;;32.51;32.31
52855;BME280;38719;51.418;7.286;2022-08-04T10:09:32;99450.00;;;32.71;32.03
52855;BME280;38719;51.418;7.286;2022-08-04T10:12:11;99461.59;;;32.79;31.71
52855;BME280;38719;51.418;7.286;2022-08-04T10:14:52;99453.03;;;32.88;31.60
52855;BME280;38719;51.418;7.286;2022-08-04T10:17:36;99451.91;;;32.95;32.22
52855;BME280;38719;51.418;7.286;2022-08-04T10:20:22;99461.84;;;32.97;32.01
52855;BME280;38719;51.418;7.286;2022-08-04T10:23:19;99462.00;;;33.02;31.24
52855;BME280;38719;51.418;7.286;2022-08-04T10:26:01;99469.16;;;33.09;29.20
52855;BME280;38719;51.418;7.286;2022-08-04T10:28:40;99467.31;;;33.03;29.32
52855;BME280;38719;51.418;7.286;2022-08-04T10:31:16;99461.28;;;33.13;29.99
52855;BME280;38719;51.418;7.286;2022-08-04T10:33:49;99454.47;;;33.16;30.68
52855;BME280;38719;51.418;7.286;2022-08-04T10:36:21;99458.06;;;33.35;31.56
52855;BME280;38719;51.418;7.286;2022-08-04T10:38:56;99458.44;;;33.57;31.19
52855;BME280;38719;51.418;7.286;2022-08-04T10:41:32;99456.63;;;33.81;30.92
52855;BME280;38719;51.418;7.286;2022-08-04T10:44:14;99456.19;;;33.66;30.57
52855;BME280;38719;51.418;7.286;2022-08-04T10:46:53;99473.16;;;33.51;31.17
52855;BME280;38719;51.418;7.286;2022-08-04T10:49:23;99469.88;;;33.42;32.19
52855;BME280;38719;51.418;7.286;2022-08-04T10:52:02;99468.69;;;33.50;31.03
52855;BME280;38719;51.418;7.286;2022-08-04T10:54:33;99471.41;;;33.38;31.14
52855;BME280;38719;51.418;7.286;2022-08-04T10:57:11;99461.97;;;33.27;31.57
52855;BME280;38719;51.418;7.286;2022-08-04T10:59:44;99468.13;;;33.29;32.05
52855;BME280;38719;51.418;7.286;2022-08-04T11:02:26;99466.44;;;33.47;32.00
52855;BME280;38719;51.418;7.286;2022-08-04T11:05:00;99472.91;;;33.52;31.97
52855;BME280;38719;51.418;7.286;2022-08-04T11:07:31;99464.91;;;33.81;31.28
52855;BME280;38719;51.418;7.286;2022-08-04T11:10:00;99473.69;;;34.09;31.01
52855;BME280;38719;51.418;7.286;2022-08-04T11:12:28;99470.47;;;34.23;30.31
52855;BME280;38719;51.418;7.286;2022-08-04T11:15:00;99482.72;;;34.28;30.14
52855;BME280;38719;51.418;7.286;2022-08-04T11:17:35;99484.16;;;34.18;30.54
52855;BME280;38719;51.418;7.286;2022-08-04T11:20:11;99482.09;;;34.14;30.77
52855;BME280;38719;51.418;7.286;2022-08-04T11:23:05;99492.88;;;34.03;30.96
52855;BME280;38719;51.418;7.286;2022-08-04T11:25:40;99496.22;;;34.05;30.89
52855;BME280;38719;51.418;7.286;2022-08-04T11:28:22;99501.59;;;34.31;31.46
52855;BME280;38719;51.418;7.286;2022-08-04T11:30:56;99499.59;;;34.07;31.18
52855;BME280;38719;51.418;7.286;2022-08-04T11:33:35;99501.66;;;34.12;31.54
52855;BME280;38719;51.418;7.286;2022-08-04T11:36:13;99503.56;;;34.12;31.50
52855;BME280;38719;51.418;7.286;2022-08-04T11:38:46;99501.56;;;34.19;31.67
52855;BME280;38719;51.418;7.286;2022-08-04T11:41:27;99509.03;;;34.30;31.32
52855;BME280;38719;51.418;7.286;2022-08-04T11:43:58;99502.31;;;34.26;31.54
52855;BME280;38719;51.418;7.286;2022-08-04T11:46:35;99505.53;;;34.23;31.15
52855;BME280;38719;51.418;7.286;2022-08-04T11:49:11;99511.91;;;34.23;31.81
52855;BME280;38719;51.418;7.286;2022-08-04T11:51:43;99519.00;;;34.31;31.11
52855;BME280;38719;51.418;7.286;2022-08-04T11:54:12;99515.25;;;34.14;31.61
52855;BME280;38719;51.418;7.286;2022-08-04T11:56:41;99506.44;;;34.05;31.31
52855;BME280;38719;51.418;7.286;2022-08-04T11:59:08;99518.19;;;34.00;31.28
52855;BME280;38719;51.418;7.286;2022-08-04T12:01:46;99521.97;;;33.87;32.21
52855;BME280;38719;51.418;7.286;2022-08-04T12:04:24;99521.59;;;33.84;32.37
52855;BME280;38719;51.418;7.286;2022-08-04T12:06:57;99516.84;;;33.91;31.95
52855;BME280;38719;51.418;7.286;2022-08-04T12:09:55;99515.28;;;33.95;31.84
52855;BME280;38719;51.418;7.286;2022-08-04T12:12:33;99520.19;;;33.93;31.79
52855;BME280;38719;51.418;7.286;2022-08-04T12:15:10;99530.47;;;33.86;31.75
52855;BME280;38719;51.418;7.286;2022-08-04T12:17:45;99519.53;;;33.61;32.53
52855;BME280;38719;51.418;7.286;2022-08-04T12:20:22;99527.13;;;33.47;32.87
52855;BME280;38719;51.418;7.286;2022-08-04T12:23:14;99534.13;;;33.24;33.61
52855;BME280;38719;51.418;7.286;2022-08-04T12:25:51;99531.72;;;33.09;33.88
52855;BME280;38719;51.418;7.286;2022-08-04T12:28:25;99530.50;;;33.05;34.03
52855;BME280;38719;51.418;7.286;2022-08-04T12:31:19;99527.78;;;32.98;33.94
52855;BME280;38719;51.418;7.286;2022-08-04T12:33:52;99534.84;;;32.94;34.58
52855;BME280;38719;51.418;7.286;2022-08-04T12:36:44;99525.19;;;32.85;34.52
52855;BME280;38719;51.418;7.286;2022-08-04T12:39:17;99535.44;;;32.77;34.87
52855;BME280;38719;51.418;7.286;2022-08-04T12:41:51;99528.00;;;32.78;35.47
52855;BME280;38719;51.418;7.286;2022-08-04T12:44:22;99526.53;;;32.75;36.55
52855;BME280;38719;51.418;7.286;2022-08-04T12:47:04;99523.97;;;32.74;36.53
52855;BME280;38719;51.418;7.286;2022-08-04T12:49:56;99524.88;;;32.68;34.73
52855;BME280;38719;51.418;7.286;2022-08-04T12:52:30;99527.00;;;32.66;34.74
52855;BME280;38719;51.418;7.286;2022-08-04T12:55:21;99521.03;;;32.75;35.06
52855;BME280;38719;51.418;7.286;2022-08-04T12:57:51;99509.81;;;33.14;34.73
52855;BME280;38719;51.418;7.286;2022-08-04T13:00:24;99515.53;;;33.19;34.54
52855;BME280;38719;51.418;7.286;2022-08-04T13:03:04;99521.38;;;33.30;34.05
52855;BME280;38719;51.418;7.286;2022-08-04T13:05:38;99528.69;;;33.17;34.34
52855;BME280;38719;51.418;7.286;2022-08-04T13:08:08;99528.28;;;33.14;34.68
52855;BME280;38719;51.418;7.286;2022-08-04T13:10:39;99516.25;;;33.08;34.62
52855;BME280;38719;51.418;7.286;2022-08-04T13:13:12;99525.81;;;33.05;34.32
52855;BME280;38719;51.418;7.286;2022-08-04T13:15:41;99518.56;;;33.11;34.73
52855;BME280;38719;51.418;7.286;2022-08-04T13:18:22;99525.13;;;33.35;34.12
52855;BME280;38719;51.418;7.286;2022-08-04T13:20:56;99525.34;;;33.34;34.42
52855;BME280;38719;51.418;7.286;2022-08-04T13:23:49;99530.19;;;33.38;34.00
52855;BME280;38719;51.418;7.286;2022-08-04T13:26:47;99521.13;;;33.50;34.15
52855;BME280;38719;51.418;7.286;2022-08-04T13:29:22;99529.94;;;33.40;35.00
52855;BME280;38719;51.418;7.286;2022-08-04T13:32:15;99536.69;;;33.81;33.99
52855;BME280;38719;51.418;7.286;2022-08-04T13:34:45;99526.09;;;33.78;34.66
52855;BME280;38719;51.418;7.286;2022-08-04T13:37:20;99521.44;;;33.79;35.12
52855;BME280;38719;51.418;7.286;2022-08-04T13:39:50;99529.72;;;33.79;34.94
52855;BME280;38719;51.418;7.286;2022-08-04T13:42:23;99528.34;;;33.69;35.53
52855;BME280;38719;51.418;7.286;2022-08-04T13:44:53;99528.81;;;33.66;35.81
52855;BME280;38719;51.418;7.286;2022-08-04T13:47:25;99525.34;;;33.71;35.87
52855;BME280;38719;51.418;7.286;2022-08-04T13:50:13;99527.97;;;33.84;35.52
52855;BME280;38719;51.418;7.286;2022-08-04T13:52:42;99516.22;;;33.70;35.44
52855;BME280;38719;51.418;7.286;2022-08-04T13:55:19;99519.22;;;33.69;35.94
52855;BME280;38719;51.418;7.286;2022-08-04T13:57:52;99512.91;;;33.80;35.58
52855;BME280;38719;51.418;7.286;2022-08-04T14:00:21;99512.53;;;33.77;35.72
52855;BME280;38719;51.418;7.286;2022-08-04T14:03:01;99515.84;;;33.85;35.51
52855;BME280;38719;51.418;7.286;2022-08-04T14:06:09;99509.78;;;33.77;35.24
52855;BME280;38719;51.418;7.286;2022-08-04T14:08:50;99514.22;;;33.78;35.21
52855;BME280;38719;51.418;7.286;2022-08-04T14:11:29;99512.84;;;33.87;34.86
52855;BME280;38719;51.418;7.286;2022-08-04T14:14:19;99511.38;;;33.84;34.76
52855;BME280;38719;51.418;7.286;2022-08-04T14:16:55;99513.47;;;33.89;35.02
52855;BME280;38719;51.418;7.286;2022-08-04T14:19:23;99516.22;;;33.89;34.73
52855;BME280;38719;51.418;7.286;2022-08-04T14:21:57;99520.28;;;33.86;34.97
52855;BME280;38719;51.418;7.286;2022-08-04T14:24:26;99517.81;;;33.78;35.37
52855;BME280;38719;51.418;7.286;2022-08-04T14:26:59;99513.84;;;33.74;35.17
52855;BME280;38719;51.418;7.286;2022-08-04T14:29:35;99514.78;;;33.68;35.23